createdAt,value
2018-10-15T00:01:55.621Z,14.60
2018-10-15T00:04:24.221Z,14.90
2018-10-15T00:06:52.781Z,16.60
2018-10-15T00:09:21.375Z,15.57
2018-10-15T00:11:49.962Z,12.80
2018-10-15T00:14:18.581Z,14.50
2018-10-15T00:16:47.289Z,14.30
2018-10-15T00:19:15.929Z,18.93
2018-10-15T00:21:44.478Z,15.67
2018-10-15T00:24:13.009Z,14.33
2018-10-15T00:26:41.562Z,15.63
2018-10-15T00:29:10.054Z,14.67
2018-10-15T00:31:38.380Z,16.10
2018-10-15T00:34:07.058Z,13.27
2018-10-15T00:36:35.621Z,15.10
2018-10-15T00:39:04.388Z,15.50
2018-10-15T00:41:32.893Z,16.30
2018-10-15T00:44:01.509Z,14.70
2018-10-15T00:46:30.000Z,15.70
2018-10-15T00:48:58.508Z,13.57
2018-10-15T00:51:26.922Z,16.37
2018-10-15T00:53:55.336Z,17.57
2018-10-15T00:56:23.847Z,18.30
2018-10-15T00:58:52.415Z,18.57
2018-10-15T01:01:20.954Z,18.00
2018-10-15T01:03:49.433Z,17.00
2018-10-15T01:06:17.901Z,14.60
2018-10-15T01:08:46.382Z,15.30
2018-10-15T01:11:14.952Z,14.40
2018-10-15T01:13:43.521Z,15.40
2018-10-15T01:16:11.892Z,14.60
2018-10-15T01:18:40.326Z,14.63
2018-10-15T01:21:08.764Z,23.03
2018-10-15T01:23:37.229Z,15.63
2018-10-15T01:26:05.952Z,17.17
2018-10-15T01:28:34.413Z,14.63
2018-10-15T01:31:02.987Z,15.30
2018-10-15T01:33:31.598Z,18.40
2018-10-15T01:36:00.089Z,15.33
2018-10-15T01:38:28.534Z,19.83
2018-10-15T01:40:56.981Z,16.20
2018-10-15T01:43:25.573Z,16.80
2018-10-15T01:45:54.224Z,16.40
2018-10-15T01:48:22.915Z,18.23
2018-10-15T01:50:51.315Z,16.67
2018-10-15T01:53:19.893Z,16.13
2018-10-15T01:55:48.424Z,16.90
2018-10-15T01:58:16.970Z,15.90
2018-10-15T02:00:45.612Z,15.73
2018-10-15T02:03:14.003Z,19.27
2018-10-15T02:05:42.581Z,19.03
2018-10-15T02:08:11.226Z,16.70
2018-10-15T02:10:39.734Z,15.37
2018-10-15T02:13:08.183Z,14.67
2018-10-15T02:15:36.717Z,14.93
2018-10-15T02:18:05.326Z,18.63
2018-10-15T02:20:33.953Z,15.27
2018-10-15T02:23:02.517Z,14.77
2018-10-15T02:25:31.013Z,15.20
2018-10-15T02:27:59.652Z,15.67
2018-10-15T02:30:28.259Z,15.23
2018-10-15T02:32:56.960Z,14.73
2018-10-15T02:35:25.413Z,17.23
2018-10-15T02:37:53.956Z,14.50
2018-10-15T02:40:22.520Z,17.50
2018-10-15T02:42:50.972Z,19.90
2018-10-15T02:45:19.475Z,16.47
2018-10-15T02:47:47.981Z,15.97
2018-10-15T02:50:16.403Z,18.00
2018-10-15T02:52:44.973Z,16.70
2018-10-15T02:55:13.612Z,20.50
2018-10-15T02:57:42.005Z,19.40
2018-10-15T03:00:12.611Z,15.53
2018-10-15T03:02:41.424Z,15.77
2018-10-15T03:05:11.230Z,17.63
2018-10-15T03:07:39.726Z,16.53
2018-10-15T03:10:08.213Z,19.03
2018-10-15T03:12:37.042Z,18.60
2018-10-15T03:15:06.440Z,15.50
2018-10-15T03:17:35.057Z,14.70
2018-10-15T03:20:03.593Z,15.43
2018-10-15T03:22:32.234Z,14.23
2018-10-15T03:25:00.700Z,16.20
2018-10-15T03:27:29.208Z,16.07
2018-10-15T03:29:57.794Z,16.10
2018-10-15T03:32:26.260Z,19.03
2018-10-15T03:34:54.881Z,20.50
2018-10-15T03:37:23.428Z,17.53
2018-10-15T03:39:51.972Z,18.23
2018-10-15T03:42:20.458Z,19.57
2018-10-15T03:44:48.868Z,17.20
2018-10-15T03:47:17.508Z,16.80
2018-10-15T03:49:45.927Z,16.00
2018-10-15T03:52:14.377Z,19.23
2018-10-15T03:54:42.941Z,18.93
2018-10-15T03:57:11.398Z,16.37
2018-10-15T03:59:39.871Z,16.10
2018-10-15T04:02:08.329Z,16.77
2018-10-15T04:04:36.988Z,17.37
2018-10-15T04:07:05.599Z,19.50
2018-10-15T04:09:34.020Z,15.60
2018-10-15T04:12:02.553Z,15.53
2018-10-15T04:14:31.001Z,17.80
2018-10-15T04:16:59.328Z,18.20
2018-10-15T04:19:27.769Z,20.60
2018-10-15T04:21:56.448Z,16.77
2018-10-15T04:24:24.994Z,15.47
2018-10-15T04:26:53.497Z,17.83
2018-10-15T04:29:21.872Z,15.90
2018-10-15T04:31:50.494Z,16.57
2018-10-15T04:34:19.107Z,15.17
2018-10-15T04:36:47.484Z,16.00
2018-10-15T04:39:15.914Z,18.17
2018-10-15T04:41:44.532Z,17.30
2018-10-15T04:44:13.029Z,18.43
2018-10-15T04:46:41.489Z,18.10
2018-10-15T04:49:10.089Z,16.03
2018-10-15T04:51:38.476Z,27.80
2018-10-15T04:54:06.955Z,17.63
2018-10-15T04:56:35.369Z,16.00
2018-10-15T05:04:51.276Z,17.60
2018-10-15T05:07:19.632Z,16.80
2018-10-15T05:09:48.068Z,15.97
2018-10-15T05:12:16.663Z,17.43
2018-10-15T05:14:44.931Z,15.10
2018-10-15T05:17:13.272Z,20.77
2018-10-15T05:19:41.666Z,19.60
2018-10-15T05:22:10.121Z,18.93
2018-10-15T05:24:38.604Z,17.20
2018-10-15T05:27:07.311Z,17.93
2018-10-15T05:29:36.384Z,17.80
2018-10-15T05:32:04.831Z,18.80
2018-10-15T05:34:33.317Z,19.07
2018-10-15T05:37:01.775Z,18.57
2018-10-15T05:39:30.260Z,15.10
2018-10-15T05:41:58.614Z,22.90
2018-10-15T05:44:27.867Z,17.17
2018-10-15T05:46:56.348Z,15.80
2018-10-15T05:49:24.604Z,18.17
2018-10-15T05:51:53.007Z,17.67
2018-10-15T05:54:21.400Z,16.80
2018-10-15T05:56:49.712Z,20.80
2018-10-15T05:59:18.072Z,16.97
2018-10-15T06:01:46.471Z,16.47
2018-10-15T06:04:14.848Z,14.50
2018-10-15T06:06:43.248Z,17.03
2018-10-15T06:09:13.072Z,18.93
2018-10-15T06:11:41.756Z,20.20
2018-10-15T06:14:10.967Z,15.47
2018-10-15T06:16:39.999Z,17.20
2018-10-15T06:19:08.417Z,20.63
2018-10-15T06:21:37.345Z,15.90
2018-10-15T06:24:06.543Z,20.53
2018-10-15T06:26:34.895Z,15.40
2018-10-15T06:29:03.741Z,18.80
2018-10-15T06:31:32.588Z,15.00
2018-10-15T06:34:01.086Z,17.20
2018-10-15T06:36:29.426Z,15.77
2018-10-15T06:38:57.787Z,15.60
2018-10-15T06:41:26.139Z,14.97
2018-10-15T06:43:54.497Z,19.83
2018-10-15T06:46:22.945Z,17.37
2018-10-15T06:48:51.320Z,15.40
2018-10-15T06:51:20.042Z,22.30
2018-10-15T06:53:48.404Z,17.30
2018-10-15T06:56:16.684Z,13.60
2018-10-15T06:58:45.076Z,21.30
2018-10-15T07:01:13.522Z,16.37
2018-10-15T07:03:41.795Z,21.43
2018-10-15T07:06:10.179Z,18.40
2018-10-15T07:08:38.508Z,17.03
2018-10-15T07:11:06.925Z,19.97
2018-10-15T07:13:35.286Z,19.33
2018-10-15T07:16:03.751Z,14.27
2018-10-15T07:18:32.049Z,15.37
2018-10-15T07:21:00.420Z,16.57
2018-10-15T07:23:28.779Z,22.17
2018-10-15T07:25:57.153Z,17.10
2018-10-15T07:28:25.617Z,14.77
2018-10-15T07:30:53.963Z,15.40
2018-10-15T07:33:22.339Z,15.70
2018-10-15T07:35:50.710Z,14.63
2018-10-15T07:38:19.165Z,19.73
2018-10-15T07:40:47.440Z,16.27
2018-10-15T07:43:15.836Z,16.43
2018-10-15T07:45:44.167Z,17.40
2018-10-15T07:48:12.613Z,16.60
2018-10-15T07:50:40.888Z,15.70
2018-10-15T07:53:09.313Z,19.30
2018-10-15T07:55:37.645Z,20.07
2018-10-15T07:58:06.205Z,28.33
2018-10-15T08:00:34.562Z,21.00
2018-10-15T08:03:02.902Z,19.10
2018-10-15T08:05:31.295Z,21.23
2018-10-15T08:07:59.656Z,20.27
2018-10-15T08:10:28.182Z,24.70
2018-10-15T08:12:56.388Z,24.97
2018-10-15T08:15:24.909Z,28.70
2018-10-15T08:17:53.163Z,34.37
2018-10-15T08:20:21.638Z,25.87
2018-10-15T08:22:50.114Z,24.27
2018-10-15T08:25:18.525Z,31.00
2018-10-15T08:27:46.953Z,35.40
2018-10-15T08:30:16.517Z,22.00
2018-10-15T08:32:45.491Z,25.27
2018-10-15T08:35:13.900Z,28.90
2018-10-15T08:37:42.293Z,32.07
2018-10-15T08:40:14.218Z,26.30
2018-10-15T08:42:44.794Z,38.13
2018-10-15T08:45:14.708Z,25.40
2018-10-15T08:47:43.125Z,25.23
2018-10-15T08:50:12.422Z,20.90
2018-10-15T08:52:40.847Z,24.23
2018-10-15T08:55:09.187Z,22.50
2018-10-15T08:57:38.275Z,23.27
2018-10-15T09:00:14.082Z,25.03
2018-10-15T09:02:42.591Z,20.80
2018-10-15T09:05:12.260Z,23.13
2018-10-15T09:07:41.355Z,19.33
2018-10-15T09:10:11.074Z,26.93
2018-10-15T09:12:39.472Z,21.63
2018-10-15T09:15:12.116Z,18.00
2018-10-15T09:17:40.701Z,33.83
2018-10-15T09:20:09.194Z,19.33
2018-10-15T09:22:38.483Z,21.03
2018-10-15T09:25:07.895Z,23.77
2018-10-15T09:27:36.381Z,30.07
2018-10-15T09:30:05.864Z,26.50
2018-10-15T09:32:34.140Z,23.73
2018-10-15T09:35:02.683Z,21.40
2018-10-15T09:37:31.027Z,21.23
2018-10-15T09:39:59.381Z,22.13
2018-10-15T09:42:27.708Z,31.60
2018-10-15T09:44:56.182Z,32.53
2018-10-15T09:47:24.380Z,26.60
2018-10-15T09:49:52.858Z,19.03
2018-10-15T09:52:23.430Z,27.43
2018-10-15T09:55:03.987Z,20.90
2018-10-15T09:57:32.317Z,21.40
2018-10-15T10:00:00.667Z,22.03
2018-10-15T10:02:29.024Z,21.27
2018-10-15T10:04:57.411Z,19.77
2018-10-15T10:07:25.781Z,21.20
2018-10-15T10:09:54.067Z,20.80
2018-10-15T10:12:22.405Z,20.00
2018-10-15T10:14:50.789Z,18.60
2018-10-15T10:17:19.155Z,15.23
2018-10-15T10:19:47.479Z,22.30
2018-10-15T10:22:15.931Z,18.13
2018-10-15T10:24:44.251Z,19.63
2018-10-15T10:27:12.545Z,11.97
2018-10-15T10:29:40.893Z,15.50
2018-10-15T10:32:09.302Z,9.53
2018-10-15T10:36:57.776Z,13.10
2018-10-15T10:39:26.132Z,19.80
2018-10-15T10:41:54.612Z,11.00
2018-10-15T10:44:22.860Z,12.90
2018-10-15T10:46:51.225Z,11.50
2018-10-15T10:49:19.564Z,13.10
2018-10-15T10:51:47.927Z,18.83
2018-10-15T10:54:16.236Z,10.60
2018-10-15T10:56:44.607Z,14.70
2018-10-15T10:59:12.928Z,14.30
2018-10-15T11:01:41.294Z,13.10
2018-10-15T11:04:09.649Z,21.47
2018-10-15T11:06:38.016Z,13.73
2018-10-15T11:09:08.684Z,11.30
2018-10-15T11:11:37.129Z,12.20
2018-10-15T11:14:05.461Z,15.80
2018-10-15T11:16:33.768Z,13.67
2018-10-15T11:19:02.200Z,14.83
2018-10-15T11:21:30.480Z,13.73
2018-10-15T11:23:58.907Z,12.37
2018-10-15T11:26:27.221Z,19.10
2018-10-15T11:28:55.623Z,11.37
2018-10-15T11:31:23.954Z,11.30
2018-10-15T11:33:52.345Z,14.33
2018-10-15T11:36:20.657Z,11.23
2018-10-15T11:38:49.012Z,10.80
2018-10-15T11:41:17.381Z,10.30
2018-10-15T11:43:45.909Z,11.20
2018-10-15T11:46:14.091Z,14.00
2018-10-15T11:48:42.458Z,11.33
2018-10-15T11:51:10.850Z,12.13
2018-10-15T11:53:39.269Z,14.30
2018-10-15T11:56:07.587Z,10.87
2018-10-15T11:58:35.978Z,11.70
2018-10-15T12:01:04.375Z,16.10
2018-10-15T12:03:33.264Z,11.93
2018-10-15T12:06:02.755Z,13.77
2018-10-15T12:08:32.499Z,12.00
2018-10-15T12:11:01.999Z,12.50
2018-10-15T12:13:30.356Z,11.63
2018-10-15T12:15:58.716Z,11.83
2018-10-15T12:18:27.458Z,11.20
2018-10-15T12:20:55.846Z,10.30
2018-10-15T12:23:24.747Z,12.27
2018-10-15T12:25:53.116Z,14.40
2018-10-15T12:28:21.760Z,10.47
2018-10-15T12:30:50.165Z,14.20
2018-10-15T12:33:19.741Z,13.83
2018-10-15T12:35:48.067Z,15.43
2018-10-15T12:38:16.400Z,11.00
2018-10-15T12:40:44.875Z,10.13
2018-10-15T12:43:13.276Z,12.03
2018-10-15T12:45:47.097Z,11.77
2018-10-15T12:48:15.447Z,13.37
2018-10-15T12:50:43.880Z,9.90
2018-10-15T12:53:12.404Z,12.20
2018-10-15T12:55:40.700Z,15.43
2018-10-15T12:58:09.049Z,10.63
2018-10-15T13:00:37.443Z,10.67
2018-10-15T13:03:06.209Z,12.77
2018-10-15T13:05:34.571Z,15.93
2018-10-15T13:08:02.958Z,11.30
2018-10-15T13:10:31.676Z,9.67
2018-10-15T13:13:00.034Z,13.00
2018-10-15T13:15:28.347Z,9.03
2018-10-15T13:17:56.800Z,13.63
2018-10-15T13:20:25.166Z,9.67
2018-10-15T13:22:53.549Z,14.83
2018-10-15T13:25:21.949Z,8.87
2018-10-15T13:27:50.312Z,8.73
2018-10-15T13:30:18.695Z,8.13
2018-10-15T13:32:47.344Z,8.03
2018-10-15T13:35:16.659Z,9.10
2018-10-15T13:37:45.600Z,9.40
2018-10-15T13:40:13.983Z,10.00
2018-10-15T13:42:42.352Z,8.80
2018-10-15T13:45:11.827Z,9.03
2018-10-15T13:47:40.136Z,9.53
2018-10-15T13:50:09.154Z,9.37
2018-10-15T13:52:38.103Z,9.20
2018-10-15T13:55:07.298Z,8.77
2018-10-15T13:57:35.672Z,8.83
2018-10-15T14:00:15.576Z,9.37
2018-10-15T14:02:43.951Z,17.10
2018-10-15T14:05:12.367Z,11.07
2018-10-15T14:07:40.716Z,13.77
2018-10-15T14:10:09.752Z,9.60
2018-10-15T14:12:38.224Z,9.47
2018-10-15T14:15:06.708Z,10.00
2018-10-15T14:17:35.149Z,13.73
2018-10-15T14:20:03.570Z,10.23
2018-10-15T14:22:32.106Z,8.90
2018-10-15T14:25:00.573Z,11.07
2018-10-15T14:27:29.061Z,11.27
2018-10-15T14:29:57.389Z,9.47
2018-10-15T14:32:25.712Z,9.33
2018-10-15T14:34:54.126Z,9.20
2018-10-15T14:37:22.551Z,9.93
2018-10-15T14:39:50.917Z,10.17
2018-10-15T14:42:19.363Z,9.50
2018-10-15T14:44:47.764Z,11.60
2018-10-15T14:47:16.099Z,13.50
2018-10-15T14:49:44.491Z,8.70
2018-10-15T14:52:12.799Z,9.80
2018-10-15T14:54:41.205Z,10.00
2018-10-15T14:57:09.580Z,9.10
2018-10-15T14:59:37.973Z,12.13
2018-10-15T15:02:06.293Z,17.93
2018-10-15T15:04:34.737Z,10.93
2018-10-15T15:07:03.067Z,11.37
2018-10-15T15:09:42.597Z,9.67
2018-10-15T15:12:22.306Z,9.80
2018-10-15T15:14:50.700Z,10.43
2018-10-15T15:17:19.073Z,11.20
2018-10-15T15:19:47.420Z,11.80
2018-10-15T15:22:15.792Z,9.83
2018-10-15T15:24:44.129Z,10.60
2018-10-15T15:27:12.477Z,13.83
2018-10-15T15:29:40.816Z,9.53
2018-10-15T15:32:09.248Z,8.90
2018-10-15T15:34:37.601Z,12.80
2018-10-15T15:37:05.981Z,11.13
2018-10-15T15:39:34.320Z,15.23
2018-10-15T15:42:02.838Z,10.50
2018-10-15T15:44:31.208Z,12.20
2018-10-15T15:46:59.684Z,11.03
2018-10-15T15:49:28.032Z,13.03
2018-10-15T15:51:56.385Z,14.67
2018-10-15T15:54:24.761Z,13.77
2018-10-15T15:56:53.160Z,14.97
2018-10-15T15:59:21.603Z,9.53
2018-10-15T16:01:50.052Z,21.10
2018-10-15T16:04:18.366Z,11.80
2018-10-15T16:06:46.791Z,16.83
2018-10-15T16:09:30.517Z,10.37
2018-10-15T16:11:58.884Z,11.77
2018-10-15T16:14:27.561Z,12.67
2018-10-15T16:16:56.377Z,11.20
2018-10-15T16:19:24.808Z,21.77
2018-10-15T16:21:53.099Z,14.27
2018-10-15T16:24:21.462Z,16.23
2018-10-15T16:26:49.848Z,21.23
2018-10-15T16:29:18.286Z,14.30
2018-10-15T16:31:46.677Z,16.97
2018-10-15T16:34:15.045Z,11.67
2018-10-15T16:36:43.425Z,15.57
2018-10-15T16:39:13.939Z,21.50
2018-10-15T16:41:43.141Z,13.03
2018-10-15T16:44:11.904Z,12.03
2018-10-15T16:46:40.767Z,14.90
2018-10-15T16:49:10.647Z,17.50
2018-10-15T16:51:39.601Z,12.90
2018-10-15T16:54:09.214Z,11.70
2018-10-15T16:56:37.693Z,15.40
2018-10-15T16:59:06.146Z,12.30
2018-10-15T17:01:34.508Z,16.03
2018-10-15T17:04:02.890Z,13.60
2018-10-15T17:06:31.323Z,13.67
2018-10-15T17:08:59.788Z,12.60
2018-10-15T17:11:28.169Z,13.13
2018-10-15T17:13:56.618Z,15.00
2018-10-15T17:16:25.058Z,19.47
2018-10-15T17:18:53.440Z,13.07
2018-10-15T17:21:21.836Z,15.97
2018-10-15T17:23:50.269Z,17.07
2018-10-15T17:26:18.693Z,15.30
2018-10-15T17:28:47.054Z,15.60
2018-10-15T17:31:15.465Z,14.40
2018-10-15T17:33:44.015Z,20.83
2018-10-15T17:36:12.374Z,15.73
2018-10-15T17:38:40.985Z,17.20
2018-10-15T17:41:11.946Z,21.93
2018-10-15T17:43:40.465Z,16.17
2018-10-15T17:46:08.874Z,16.17
2018-10-15T17:48:37.345Z,15.60
2018-10-15T17:51:05.919Z,17.43
2018-10-15T17:53:34.377Z,16.50
2018-10-15T17:56:02.921Z,14.80
2018-10-15T17:58:31.712Z,18.13
2018-10-15T18:01:00.113Z,13.37
2018-10-15T18:03:28.585Z,18.20
2018-10-15T18:05:57.041Z,17.17
2018-10-15T18:08:26.152Z,19.43
2018-10-15T18:10:55.925Z,19.83
2018-10-15T18:13:25.740Z,18.30
2018-10-15T18:15:55.086Z,15.17
2018-10-15T18:18:23.677Z,15.00
2018-10-15T18:20:52.268Z,16.93
2018-10-15T18:23:20.777Z,19.70
2018-10-15T18:25:49.384Z,17.47
2018-10-15T18:28:18.041Z,17.83
2018-10-15T18:30:46.444Z,18.00
2018-10-15T18:33:14.866Z,16.67
2018-10-15T18:35:43.326Z,15.60
2018-10-15T18:38:11.682Z,18.23
2018-10-15T18:40:40.082Z,21.10
2018-10-15T18:43:08.512Z,13.90
2018-10-15T18:45:36.911Z,21.60
2018-10-15T18:48:05.456Z,15.63
2018-10-15T18:50:33.885Z,14.33
2018-10-15T18:53:02.331Z,18.70
2018-10-15T18:55:30.758Z,17.37
2018-10-15T18:57:59.206Z,16.90
2018-10-15T19:00:27.645Z,15.30
2018-10-15T19:02:56.022Z,17.80
2018-10-15T19:05:24.477Z,19.67
2018-10-15T19:07:52.872Z,26.27
2018-10-15T19:10:21.341Z,17.70
2018-10-15T19:12:49.726Z,17.13
2018-10-15T19:15:18.068Z,18.67
2018-10-15T19:17:46.488Z,17.30
2018-10-15T19:20:15.257Z,23.70
2018-10-15T19:22:44.268Z,19.27
2018-10-15T19:25:12.660Z,23.40
2018-10-15T19:27:41.122Z,18.97
2018-10-15T19:30:11.289Z,24.03
2018-10-15T19:32:40.445Z,17.70
2018-10-15T19:35:10.066Z,18.00
2018-10-15T19:37:38.450Z,20.13
2018-10-15T19:40:06.909Z,14.90
2018-10-15T19:42:36.008Z,16.63
2018-10-15T19:45:05.441Z,16.53
2018-10-15T19:47:33.930Z,21.03
2018-10-15T19:50:02.917Z,16.67
2018-10-15T19:52:31.601Z,18.37
2018-10-15T19:55:00.384Z,18.23
2018-10-15T19:57:28.909Z,17.43
2018-10-15T19:59:57.352Z,16.73
2018-10-15T20:02:25.774Z,15.67
2018-10-15T20:04:54.167Z,21.00
2018-10-15T20:07:22.776Z,17.43
2018-10-15T20:09:51.378Z,18.50
2018-10-15T20:12:19.799Z,17.67
2018-10-15T20:14:48.245Z,22.37
2018-10-15T20:17:16.727Z,20.60
2018-10-15T20:19:45.072Z,22.60
2018-10-15T20:22:13.515Z,20.03
2018-10-15T20:24:42.039Z,19.70
2018-10-15T20:27:11.019Z,20.40
2018-10-15T20:29:39.852Z,20.03
2018-10-15T20:32:08.543Z,19.80
2018-10-15T20:34:36.905Z,19.80
2018-10-15T20:37:05.367Z,20.60
2018-10-15T20:39:34.009Z,23.80
2018-10-15T20:42:02.596Z,17.73
2018-10-15T20:44:30.988Z,16.77
2018-10-15T20:46:59.515Z,22.77
2018-10-15T20:49:27.964Z,20.40
2018-10-15T20:51:56.765Z,20.50
2018-10-15T20:54:25.212Z,23.97
2018-10-15T20:56:53.678Z,21.50
2018-10-15T20:59:22.067Z,23.47
2018-10-15T21:01:50.441Z,26.73
2018-10-15T21:04:18.980Z,24.20
2018-10-15T21:06:47.288Z,23.00
2018-10-15T21:09:15.980Z,26.13
2018-10-15T21:11:44.514Z,23.53
2018-10-15T21:14:12.991Z,22.50
2018-10-15T21:16:41.285Z,23.13
2018-10-15T21:19:09.709Z,25.73
2018-10-15T21:21:38.263Z,27.07
2018-10-15T21:24:06.957Z,24.10
2018-10-15T21:26:35.627Z,20.17
2018-10-15T21:29:03.995Z,20.83
2018-10-15T21:31:32.325Z,25.60
2018-10-15T21:34:00.744Z,26.63
2018-10-15T21:36:29.130Z,26.93
2018-10-15T21:38:57.437Z,22.97
2018-10-15T21:41:25.809Z,22.93
2018-10-15T21:43:54.202Z,22.90
2018-10-15T21:46:22.673Z,23.00
2018-10-15T21:48:51.031Z,21.80
2018-10-15T21:51:19.396Z,24.37
2018-10-15T21:53:47.822Z,24.03
2018-10-15T21:56:16.178Z,20.50
2018-10-15T21:58:44.563Z,22.43
2018-10-15T22:01:13.019Z,30.27
2018-10-15T22:03:41.420Z,20.50
2018-10-15T22:06:09.913Z,19.53
2018-10-15T22:08:38.257Z,19.37
2018-10-15T22:11:06.768Z,25.63
2018-10-15T22:13:35.133Z,29.03
2018-10-15T22:16:03.674Z,24.00
2018-10-15T22:18:32.378Z,20.80
2018-10-15T22:21:01.031Z,35.20
2018-10-15T22:23:29.730Z,28.00
2018-10-15T22:25:58.345Z,25.23
2018-10-15T22:28:26.726Z,23.37
2018-10-15T22:30:55.104Z,24.67
2018-10-15T22:33:23.465Z,24.23
2018-10-15T22:35:51.875Z,23.60
2018-10-15T22:38:20.248Z,23.53
2018-10-15T22:40:48.657Z,21.80
2018-10-15T22:43:17.036Z,20.23
2018-10-15T22:45:45.432Z,22.03
2018-10-15T22:48:13.847Z,25.40
2018-10-15T22:50:42.251Z,25.27
2018-10-15T22:53:10.615Z,25.17
2018-10-15T22:55:39.020Z,24.70
2018-10-15T22:58:07.406Z,27.57
2018-10-15T23:00:35.763Z,26.93
2018-10-15T23:03:04.476Z,21.80
2018-10-15T23:05:32.908Z,24.37
2018-10-15T23:08:01.332Z,23.47
2018-10-15T23:10:31.467Z,25.33
2018-10-15T23:13:00.273Z,22.53
2018-10-15T23:15:28.648Z,27.00
2018-10-15T23:17:57.054Z,26.50
2018-10-15T23:20:25.445Z,25.93
2018-10-15T23:22:53.844Z,21.60
2018-10-15T23:25:22.248Z,26.27
2018-10-15T23:27:50.592Z,20.57
2018-10-15T23:30:18.995Z,20.50
2018-10-15T23:32:47.344Z,24.53
2018-10-15T23:35:15.720Z,21.43
2018-10-15T23:37:44.092Z,23.27
2018-10-15T23:40:13.391Z,23.40
2018-10-15T23:42:41.826Z,22.33
2018-10-15T23:45:11.372Z,21.00
2018-10-15T23:47:40.081Z,21.13
2018-10-15T23:50:10.488Z,25.80
2018-10-15T23:52:38.860Z,18.40
2018-10-15T23:55:08.236Z,22.40
2018-10-15T23:57:36.852Z,25.10
